sensor_id;sensor_type;location;lat;lon;timestamp;temperature;humidity
71436;SHT31;59251;51.326;12.370;2023-02-28T00:00:43;0.79;77.09
71436;SHT31;59251;51.326;12.370;2023-02-28T00:03:08;0.84;76.14
71436;SHT31;59251;51.326;12.370;2023-02-28T00:05:34;0.84;76.21
71436;SHT31;59251;51.326;12.370;2023-02-28T00:07:59;0.79;75.98
71436;SHT31;59251;51.326;12.370;2023-02-28T00:10:28;0.75;76.50
71436;SHT31;59251;51.326;12.370;2023-02-28T00:12:55;0.73;76.68
71436;SHT31;59251;51.326;12.370;2023-02-28T00:15:22;0.72;76.64
71436;SHT31;59251;51.326;12.370;2023-02-28T00:17:48;0.81;76.27
71436;SHT31;59251;51.326;12.370;2023-02-28T00:20:14;0.80;76.43
71436;SHT31;59251;51.326;12.370;2023-02-28T00:22:43;0.83;76.64
71436;SHT31;59251;51.326;12.370;2023-02-28T00:25:10;0.83;76.49
71436;SHT31;59251;51.326;12.370;2023-02-28T00:27:37;0.80;76.99
71436;SHT31;59251;51.326;12.370;2023-02-28T00:30:03;0.83;76.79
71436;SHT31;59251;51.326;12.370;2023-02-28T00:32:29;0.79;76.60
71436;SHT31;59251;51.326;12.370;2023-02-28T00:34:55;0.70;76.55
71436;SHT31;59251;51.326;12.370;2023-02-28T00:37:20;0.67;76.89
71436;SHT31;59251;51.326;12.370;2023-02-28T00:39:45;0.69;77.09
71436;SHT31;59251;51.326;12.370;2023-02-28T00:42:11;0.63;77.23
71436;SHT31;59251;51.326;12.370;2023-02-28T00:44:36;0.67;77.23
71436;SHT31;59251;51.326;12.370;2023-02-28T00:47:01;0.75;77.25
71436;SHT31;59251;51.326;12.370;2023-02-28T00:49:27;0.67;77.55
71436;SHT31;59251;51.326;12.370;2023-02-28T00:51:54;0.67;77.43
71436;SHT31;59251;51.326;12.370;2023-02-28T00:54:20;0.67;77.63
71436;SHT31;59251;51.326;12.370;2023-02-28T00:56:46;0.69;77.90
71436;SHT31;59251;51.326;12.370;2023-02-28T00:59:12;0.65;77.94
71436;SHT31;59251;51.326;12.370;2023-02-28T01:01:38;0.60;78.12
71436;SHT31;59251;51.326;12.370;2023-02-28T01:04:04;0.60;77.93
71436;SHT31;59251;51.326;12.370;2023-02-28T01:06:30;0.56;78.25
71436;SHT31;59251;51.326;12.370;2023-02-28T01:08:56;0.59;78.36
71436;SHT31;59251;51.326;12.370;2023-02-28T01:11:22;0.62;78.22
71436;SHT31;59251;51.326;12.370;2023-02-28T01:13:47;0.62;78.29
71436;SHT31;59251;51.326;12.370;2023-02-28T01:16:13;0.62;78.34
71436;SHT31;59251;51.326;12.370;2023-02-28T01:18:39;0.57;78.36
71436;SHT31;59251;51.326;12.370;2023-02-28T01:21:06;0.59;78.39
71436;SHT31;59251;51.326;12.370;2023-02-28T01:23:32;0.60;78.61
71436;SHT31;59251;51.326;12.370;2023-02-28T01:26:04;0.59;78.59
71436;SHT31;59251;51.326;12.370;2023-02-28T01:28:29;0.60;78.71
71436;SHT31;59251;51.326;12.370;2023-02-28T01:30:54;0.65;78.79
71436;SHT31;59251;51.326;12.370;2023-02-28T01:33:20;0.63;78.86
71436;SHT31;59251;51.326;12.370;2023-02-28T01:35:45;0.60;79.08
71436;SHT31;59251;51.326;12.370;2023-02-28T01:38:11;0.59;78.85
71436;SHT31;59251;51.326;12.370;2023-02-28T01:40:36;0.60;78.87
71436;SHT31;59251;51.326;12.370;2023-02-28T01:43:01;0.63;78.90
71436;SHT31;59251;51.326;12.370;2023-02-28T01:45:28;0.59;79.01
71436;SHT31;59251;51.326;12.370;2023-02-28T01:47:58;0.60;79.16
71436;SHT31;59251;51.326;12.370;2023-02-28T01:50:27;0.66;78.96
71436;SHT31;59251;51.326;12.370;2023-02-28T01:52:56;0.70;79.31
71436;SHT31;59251;51.326;12.370;2023-02-28T01:55:23;0.62;79.42
71436;SHT31;59251;51.326;12.370;2023-02-28T01:57:55;0.56;79.40
71436;SHT31;59251;51.326;12.370;2023-02-28T02:00:24;0.59;79.55
71436;SHT31;59251;51.326;12.370;2023-02-28T02:02:52;0.57;79.57
71436;SHT31;59251;51.326;12.370;2023-02-28T02:05:21;0.55;79.81
71436;SHT31;59251;51.326;12.370;2023-02-28T02:07:49;0.62;79.33
71436;SHT31;59251;51.326;12.370;2023-02-28T02:10:21;0.59;79.28
71436;SHT31;59251;51.326;12.370;2023-02-28T02:15:26;0.60;79.06
71436;SHT31;59251;51.326;12.370;2023-02-28T02:17:57;0.57;79.22
71436;SHT31;59251;51.326;12.370;2023-02-28T02:20:49;0.52;79.33
71436;SHT31;59251;51.326;12.370;2023-02-28T02:29:21;0.53;79.56
71436;SHT31;59251;51.326;12.370;2023-02-28T02:34:58;0.52;79.38
71436;SHT31;59251;51.326;12.370;2023-02-28T02:37:31;0.53;79.59
71436;SHT31;59251;51.326;12.370;2023-02-28T02:45:32;0.53;79.58
71436;SHT31;59251;51.326;12.370;2023-02-28T02:48:01;0.50;79.29
71436;SHT31;59251;51.326;12.370;2023-02-28T02:50:35;0.50;79.31
71436;SHT31;59251;51.326;12.370;2023-02-28T02:53:03;0.42;79.42
71436;SHT31;59251;51.326;12.370;2023-02-28T02:55:31;0.38;79.72
71436;SHT31;59251;51.326;12.370;2023-02-28T02:58:04;0.32;80.01
71436;SHT31;59251;51.326;12.370;2023-02-28T03:00:37;0.25;80.15
71436;SHT31;59251;51.326;12.370;2023-02-28T03:03:05;0.18;80.35
71436;SHT31;59251;51.326;12.370;2023-02-28T03:05:52;0.19;80.25
71436;SHT31;59251;51.326;12.370;2023-02-28T03:08:17;0.19;80.54
71436;SHT31;59251;51.326;12.370;2023-02-28T03:10:46;0.18;80.38
71436;SHT31;59251;51.326;12.370;2023-02-28T03:16:32;0.09;81.02
71436;SHT31;59251;51.326;12.370;2023-02-28T03:24:57;0.09;80.78
71436;SHT31;59251;51.326;12.370;2023-02-28T03:27:29;0.12;80.76
71436;SHT31;59251;51.326;12.370;2023-02-28T03:30:10;0.15;80.46
71436;SHT31;59251;51.326;12.370;2023-02-28T03:32:45;0.12;80.79
71436;SHT31;59251;51.326;12.370;2023-02-28T03:35:24;0.09;80.82
71436;SHT31;59251;51.326;12.370;2023-02-28T03:37:55;0.15;80.96
71436;SHT31;59251;51.326;12.370;2023-02-28T03:40:28;0.09;80.97
71436;SHT31;59251;51.326;12.370;2023-02-28T03:43:01;0.09;81.13
71436;SHT31;59251;51.326;12.370;2023-02-28T03:45:30;0.04;81.19
71436;SHT31;59251;51.326;12.370;2023-02-28T03:48:01;0.01;81.26
71436;SHT31;59251;51.326;12.370;2023-02-28T03:50:35;-0.02;81.26
71436;SHT31;59251;51.326;12.370;2023-02-28T03:53:11;-0.05;81.32
71436;SHT31;59251;51.326;12.370;2023-02-28T03:55:43;-0.03;81.43
71436;SHT31;59251;51.326;12.370;2023-02-28T03:58:22;-0.06;81.50
71436;SHT31;59251;51.326;12.370;2023-02-28T04:00:57;-0.02;81.45
71436;SHT31;59251;51.326;12.370;2023-02-28T04:03:24;-0.06;81.50
71436;SHT31;59251;51.326;12.370;2023-02-28T04:05:54;-0.07;81.41
71436;SHT31;59251;51.326;12.370;2023-02-28T04:08:20;-0.03;81.07
71436;SHT31;59251;51.326;12.370;2023-02-28T04:10:50;-0.02;81.15
71436;SHT31;59251;51.326;12.370;2023-02-28T04:13:17;-0.03;81.21
71436;SHT31;59251;51.326;12.370;2023-02-28T04:15:42;-0.02;81.26
71436;SHT31;59251;51.326;12.370;2023-02-28T04:18:08;0.02;80.95
71436;SHT31;59251;51.326;12.370;2023-02-28T04:20:33;0.04;80.90
71436;SHT31;59251;51.326;12.370;2023-02-28T04:22:58;0.08;80.86
71436;SHT31;59251;51.326;12.370;2023-02-28T04:25:24;0.15;80.69
71436;SHT31;59251;51.326;12.370;2023-02-28T04:27:49;0.09;80.86
71436;SHT31;59251;51.326;12.370;2023-02-28T04:30:15;0.05;80.94
71436;SHT31;59251;51.326;12.370;2023-02-28T04:32:40;0.11;80.95
71436;SHT31;59251;51.326;12.370;2023-02-28T04:35:06;0.14;80.84
71436;SHT31;59251;51.326;12.370;2023-02-28T04:37:31;0.15;80.78
71436;SHT31;59251;51.326;12.370;2023-02-28T04:40:00;0.11;80.59
71436;SHT31;59251;51.326;12.370;2023-02-28T04:42:25;0.09;80.27
71436;SHT31;59251;51.326;12.370;2023-02-28T04:44:51;0.15;79.64
71436;SHT31;59251;51.326;12.370;2023-02-28T04:47:17;0.15;79.49
71436;SHT31;59251;51.326;12.370;2023-02-28T04:49:42;0.08;79.28
71436;SHT31;59251;51.326;12.370;2023-02-28T04:52:08;0.07;79.41
71436;SHT31;59251;51.326;12.370;2023-02-28T04:54:35;0.04;79.25
71436;SHT31;59251;51.326;12.370;2023-02-28T04:57:00;0.00;79.36
71436;SHT31;59251;51.326;12.370;2023-02-28T04:59:26;-0.03;79.89
71436;SHT31;59251;51.326;12.370;2023-02-28T05:01:52;-0.05;79.76
71436;SHT31;59251;51.326;12.370;2023-02-28T05:04:17;0.00;79.60
71436;SHT31;59251;51.326;12.370;2023-02-28T05:06:43;0.04;79.19
71436;SHT31;59251;51.326;12.370;2023-02-28T05:09:08;0.02;78.49
71436;SHT31;59251;51.326;12.370;2023-02-28T05:11:37;0.02;78.40
71436;SHT31;59251;51.326;12.370;2023-02-28T05:14:06;0.05;78.42
71436;SHT31;59251;51.326;12.370;2023-02-28T05:16:32;0.08;78.47
71436;SHT31;59251;51.326;12.370;2023-02-28T05:18:57;0.09;78.16
71436;SHT31;59251;51.326;12.370;2023-02-28T05:23:54;0.09;77.96
71436;SHT31;59251;51.326;12.370;2023-02-28T05:26:20;0.09;77.76
71436;SHT31;59251;51.326;12.370;2023-02-28T05:28:45;0.17;76.75
71436;SHT31;59251;51.326;12.370;2023-02-28T05:31:11;0.18;76.23
71436;SHT31;59251;51.326;12.370;2023-02-28T05:33:36;0.17;76.17
71436;SHT31;59251;51.326;12.370;2023-02-28T05:36:03;0.19;75.99
71436;SHT31;59251;51.326;12.370;2023-02-28T05:38:29;0.17;75.97
71436;SHT31;59251;51.326;12.370;2023-02-28T05:40:54;0.11;75.71
71436;SHT31;59251;51.326;12.370;2023-02-28T05:43:19;0.11;75.32
71436;SHT31;59251;51.326;12.370;2023-02-28T05:45:45;0.19;75.47
71436;SHT31;59251;51.326;12.370;2023-02-28T05:48:10;0.15;76.04
71436;SHT31;59251;51.326;12.370;2023-02-28T05:50:35;0.09;76.18
71436;SHT31;59251;51.326;12.370;2023-02-28T05:53:01;0.14;75.81
71436;SHT31;59251;51.326;12.370;2023-02-28T05:55:27;0.14;75.74
71436;SHT31;59251;51.326;12.370;2023-02-28T05:57:52;0.14;75.91
71436;SHT31;59251;51.326;12.370;2023-02-28T06:00:18;0.15;75.50
71436;SHT31;59251;51.326;12.370;2023-02-28T06:02:43;0.15;75.31
71436;SHT31;59251;51.326;12.370;2023-02-28T06:05:14;0.15;75.39
71436;SHT31;59251;51.326;12.370;2023-02-28T06:07:40;0.14;75.43
71436;SHT31;59251;51.326;12.370;2023-02-28T06:10:05;0.17;75.80
71436;SHT31;59251;51.326;12.370;2023-02-28T06:12:31;0.08;75.91
71436;SHT31;59251;51.326;12.370;2023-02-28T06:14:56;0.04;76.42
71436;SHT31;59251;51.326;12.370;2023-02-28T06:17:22;0.01;76.35
71436;SHT31;59251;51.326;12.370;2023-02-28T06:19:47;0.00;76.71
71436;SHT31;59251;51.326;12.370;2023-02-28T06:22:13;0.01;76.87
71436;SHT31;59251;51.326;12.370;2023-02-28T06:24:38;0.00;76.93
71436;SHT31;59251;51.326;12.370;2023-02-28T06:27:04;-0.13;76.74
71436;SHT31;59251;51.326;12.370;2023-02-28T06:29:31;-0.13;77.20
71436;SHT31;59251;51.326;12.370;2023-02-28T06:31:57;-0.11;77.66
71436;SHT31;59251;51.326;12.370;2023-02-28T06:34:22;-0.11;77.87
71436;SHT31;59251;51.326;12.370;2023-02-28T06:36:50;-0.19;77.87
71436;SHT31;59251;51.326;12.370;2023-02-28T06:39:16;-0.19;77.78
71436;SHT31;59251;51.326;12.370;2023-02-28T06:41:42;-0.14;77.67
71436;SHT31;59251;51.326;12.370;2023-02-28T06:44:16;-0.19;77.74
71436;SHT31;59251;51.326;12.370;2023-02-28T06:46:43;-0.21;78.05
71436;SHT31;59251;51.326;12.370;2023-02-28T06:49:09;-0.23;78.05
71436;SHT31;59251;51.326;12.370;2023-02-28T06:51:37;-0.20;78.29
71436;SHT31;59251;51.326;12.370;2023-02-28T06:54:03;-0.16;78.29
71436;SHT31;59251;51.326;12.370;2023-02-28T06:56:28;-0.11;78.13
71436;SHT31;59251;51.326;12.370;2023-02-28T06:58:54;-0.16;78.18
71436;SHT31;59251;51.326;12.370;2023-02-28T07:01:20;-0.10;78.19
71436;SHT31;59251;51.326;12.370;2023-02-28T07:03:46;-0.09;78.16
71436;SHT31;59251;51.326;12.370;2023-02-28T07:06:11;-0.07;78.17
71436;SHT31;59251;51.326;12.370;2023-02-28T07:08:37;0.00;78.14
71436;SHT31;59251;51.326;12.370;2023-02-28T07:11:03;0.02;78.19
71436;SHT31;59251;51.326;12.370;2023-02-28T07:13:28;0.19;77.48
71436;SHT31;59251;51.326;12.370;2023-02-28T07:16:02;0.83;75.42
71436;SHT31;59251;51.326;12.370;2023-02-28T07:18:29;1.09;73.71
71436;SHT31;59251;51.326;12.370;2023-02-28T07:20:54;0.93;74.59
71436;SHT31;59251;51.326;12.370;2023-02-28T07:23:20;0.80;75.29
71436;SHT31;59251;51.326;12.370;2023-02-28T07:25:46;0.50;76.01
71436;SHT31;59251;51.326;12.370;2023-02-28T07:28:12;0.48;76.17
71436;SHT31;59251;51.326;12.370;2023-02-28T07:30:38;0.26;75.74
71436;SHT31;59251;51.326;12.370;2023-02-28T07:33:04;0.35;76.12
71436;SHT31;59251;51.326;12.370;2023-02-28T07:35:30;0.67;75.22
71436;SHT31;59251;51.326;12.370;2023-02-28T07:37:57;0.86;74.95
71436;SHT31;59251;51.326;12.370;2023-02-28T07:40:23;0.86;74.51
71436;SHT31;59251;51.326;12.370;2023-02-28T07:42:48;0.62;74.89
71436;SHT31;59251;51.326;12.370;2023-02-28T07:45:13;0.69;74.62
71436;SHT31;59251;51.326;12.370;2023-02-28T07:47:40;0.75;74.56
71436;SHT31;59251;51.326;12.370;2023-02-28T07:50:08;0.84;73.97
71436;SHT31;59251;51.326;12.370;2023-02-28T07:52:36;0.94;73.06
71436;SHT31;59251;51.326;12.370;2023-02-28T07:55:01;0.91;73.11
71436;SHT31;59251;51.326;12.370;2023-02-28T07:57:27;0.94;72.57
71436;SHT31;59251;51.326;12.370;2023-02-28T07:59:52;1.32;71.63
71436;SHT31;59251;51.326;12.370;2023-02-28T08:02:18;1.28;72.17
71436;SHT31;59251;51.326;12.370;2023-02-28T08:04:44;1.28;71.28
71436;SHT31;59251;51.326;12.370;2023-02-28T08:07:10;1.39;71.03
71436;SHT31;59251;51.326;12.370;2023-02-28T08:09:39;1.80;71.50
71436;SHT31;59251;51.326;12.370;2023-02-28T08:12:06;2.14;71.61
71436;SHT31;59251;51.326;12.370;2023-02-28T08:14:31;2.21;69.22
71436;SHT31;59251;51.326;12.370;2023-02-28T08:16:56;2.38;68.90
71436;SHT31;59251;51.326;12.370;2023-02-28T08:19:22;1.51;68.84
71436;SHT31;59251;51.326;12.370;2023-02-28T08:21:47;1.51;69.28
71436;SHT31;59251;51.326;12.370;2023-02-28T08:24:13;1.58;69.17
71436;SHT31;59251;51.326;12.370;2023-02-28T08:26:38;1.67;68.69
71436;SHT31;59251;51.326;12.370;2023-02-28T08:29:03;1.67;68.59
71436;SHT31;59251;51.326;12.370;2023-02-28T08:31:29;1.58;67.62
71436;SHT31;59251;51.326;12.370;2023-02-28T08:33:54;1.90;67.35
71436;SHT31;59251;51.326;12.370;2023-02-28T08:36:22;1.97;66.40
71436;SHT31;59251;51.326;12.370;2023-02-28T08:38:48;2.18;65.55
71436;SHT31;59251;51.326;12.370;2023-02-28T08:41:14;2.21;65.08
71436;SHT31;59251;51.326;12.370;2023-02-28T08:43:40;1.97;63.86
71436;SHT31;59251;51.326;12.370;2023-02-28T08:46:06;1.79;63.62
71436;SHT31;59251;51.326;12.370;2023-02-28T08:48:34;1.89;63.42
71436;SHT31;59251;51.326;12.370;2023-02-28T08:51:09;1.96;63.97
71436;SHT31;59251;51.326;12.370;2023-02-28T08:53:36;1.97;63.37
71436;SHT31;59251;51.326;12.370;2023-02-28T08:56:05;2.06;63.01
71436;SHT31;59251;51.326;12.370;2023-02-28T08:58:31;1.97;63.00
71436;SHT31;59251;51.326;12.370;2023-02-28T09:00:57;2.24;63.09
71436;SHT31;59251;51.326;12.370;2023-02-28T09:03:23;2.35;63.06
71436;SHT31;59251;51.326;12.370;2023-02-28T09:06:10;2.24;63.11
71436;SHT31;59251;51.326;12.370;2023-02-28T09:08:36;2.25;62.95
71436;SHT31;59251;51.326;12.370;2023-02-28T09:11:02;2.37;62.93
71436;SHT31;59251;51.326;12.370;2023-02-28T09:13:28;2.11;63.16
71436;SHT31;59251;51.326;12.370;2023-02-28T09:15:57;2.14;63.03
71436;SHT31;59251;51.326;12.370;2023-02-28T09:18:23;2.14;63.36
71436;SHT31;59251;51.326;12.370;2023-02-28T09:20:48;2.28;62.87
71436;SHT31;59251;51.326;12.370;2023-02-28T09:23:13;2.42;62.60
71436;SHT31;59251;51.326;12.370;2023-02-28T09:25:50;2.40;61.96
71436;SHT31;59251;51.326;12.370;2023-02-28T09:28:16;2.42;62.20
71436;SHT31;59251;51.326;12.370;2023-02-28T09:30:43;2.56;61.83
71436;SHT31;59251;51.326;12.370;2023-02-28T09:33:09;2.79;61.30
71436;SHT31;59251;51.326;12.370;2023-02-28T09:35:35;2.63;61.26
71436;SHT31;59251;51.326;12.370;2023-02-28T09:38:02;2.82;61.01
71436;SHT31;59251;51.326;12.370;2023-02-28T09:40:27;3.03;60.55
71436;SHT31;59251;51.326;12.370;2023-02-28T09:42:55;3.41;59.89
71436;SHT31;59251;51.326;12.370;2023-02-28T09:47:54;3.21;59.72
71436;SHT31;59251;51.326;12.370;2023-02-28T09:50:35;3.38;59.02
71436;SHT31;59251;51.326;12.370;2023-02-28T09:53:13;3.44;58.73
71436;SHT31;59251;51.326;12.370;2023-02-28T09:55:48;3.03;57.76
71436;SHT31;59251;51.326;12.370;2023-02-28T09:58:20;3.39;57.25
71436;SHT31;59251;51.326;12.370;2023-02-28T10:00:57;3.01;58.07
71436;SHT31;59251;51.326;12.370;2023-02-28T10:05:56;3.27;57.60
71436;SHT31;59251;51.326;12.370;2023-02-28T10:08:30;3.14;57.70
71436;SHT31;59251;51.326;12.370;2023-02-28T10:10:59;3.42;58.21
71436;SHT31;59251;51.326;12.370;2023-02-28T10:16:15;3.45;57.08
71436;SHT31;59251;51.326;12.370;2023-02-28T10:18:54;3.38;57.38
71436;SHT31;59251;51.326;12.370;2023-02-28T10:21:29;3.09;57.38
71436;SHT31;59251;51.326;12.370;2023-02-28T10:24:05;3.32;57.53
71436;SHT31;59251;51.326;12.370;2023-02-28T10:26:36;3.27;57.18
71436;SHT31;59251;51.326;12.370;2023-02-28T10:29:02;3.16;57.21
71436;SHT31;59251;51.326;12.370;2023-02-28T10:31:28;3.44;57.65
71436;SHT31;59251;51.326;12.370;2023-02-28T10:33:54;3.01;57.36
71436;SHT31;59251;51.326;12.370;2023-02-28T10:36:21;3.28;57.86
71436;SHT31;59251;51.326;12.370;2023-02-28T10:38:47;3.21;57.92
71436;SHT31;59251;51.326;12.370;2023-02-28T10:44:20;3.28;57.50
71436;SHT31;59251;51.326;12.370;2023-02-28T10:46:47;3.51;57.31
71436;SHT31;59251;51.326;12.370;2023-02-28T10:49:24;3.32;58.23
71436;SHT31;59251;51.326;12.370;2023-02-28T10:51:54;3.47;58.11
71436;SHT31;59251;51.326;12.370;2023-02-28T10:54:30;3.26;58.43
71436;SHT31;59251;51.326;12.370;2023-02-28T10:57:20;3.76;57.83
71436;SHT31;59251;51.326;12.370;2023-02-28T10:59:51;3.62;58.01
71436;SHT31;59251;51.326;12.370;2023-02-28T11:02:34;3.14;58.67
71436;SHT31;59251;51.326;12.370;2023-02-28T11:05:01;2.89;59.31
71436;SHT31;59251;51.326;12.370;2023-02-28T11:07:26;3.11;59.45
71436;SHT31;59251;51.326;12.370;2023-02-28T11:09:54;3.24;59.05
71436;SHT31;59251;51.326;12.370;2023-02-28T11:12:23;3.42;58.37
71436;SHT31;59251;51.326;12.370;2023-02-28T11:15:03;3.13;59.19
71436;SHT31;59251;51.326;12.370;2023-02-28T11:17:31;3.16;59.07
71436;SHT31;59251;51.326;12.370;2023-02-28T11:20:02;3.45;58.88
71436;SHT31;59251;51.326;12.370;2023-02-28T11:22:31;3.78;58.32
71436;SHT31;59251;51.326;12.370;2023-02-28T11:25:01;3.62;58.42
71436;SHT31;59251;51.326;12.370;2023-02-28T11:29:56;3.65;58.78
71436;SHT31;59251;51.326;12.370;2023-02-28T11:32:23;3.26;58.42
71436;SHT31;59251;51.326;12.370;2023-02-28T11:37:35;3.58;58.93
71436;SHT31;59251;51.326;12.370;2023-02-28T11:40:00;3.68;58.53
71436;SHT31;59251;51.326;12.370;2023-02-28T11:42:43;3.54;58.70
71436;SHT31;59251;51.326;12.370;2023-02-28T11:48:01;3.86;58.70
71436;SHT31;59251;51.326;12.370;2023-02-28T11:50:47;4.18;58.04
71436;SHT31;59251;51.326;12.370;2023-02-28T12:04:04;5.39;54.88
71436;SHT31;59251;51.326;12.370;2023-02-28T12:06:52;5.10;55.67
71436;SHT31;59251;51.326;12.370;2023-02-28T12:10:03;5.60;55.94
71436;SHT31;59251;51.326;12.370;2023-02-28T12:15:37;4.72;55.91
71436;SHT31;59251;51.326;12.370;2023-02-28T12:21:35;5.87;53.67
71436;SHT31;59251;51.326;12.370;2023-02-28T12:24:14;5.05;55.76
71436;SHT31;59251;51.326;12.370;2023-02-28T12:26:47;5.71;54.46
71436;SHT31;59251;51.326;12.370;2023-02-28T12:29:23;6.08;54.47
71436;SHT31;59251;51.326;12.370;2023-02-28T12:31:59;5.20;54.96
71436;SHT31;59251;51.326;12.370;2023-02-28T12:34:47;5.72;54.82
71436;SHT31;59251;51.326;12.370;2023-02-28T12:37:18;5.12;54.69
71436;SHT31;59251;51.326;12.370;2023-02-28T12:39:47;6.41;52.04
71436;SHT31;59251;51.326;12.370;2023-02-28T12:42:22;6.44;52.03
71436;SHT31;59251;51.326;12.370;2023-02-28T12:45:05;6.20;52.21
71436;SHT31;59251;51.326;12.370;2023-02-28T12:47:34;6.40;52.25
71436;SHT31;59251;51.326;12.370;2023-02-28T12:50:04;7.70;49.26
71436;SHT31;59251;51.326;12.370;2023-02-28T13:00:25;7.01;52.32
71436;SHT31;59251;51.326;12.370;2023-02-28T13:06:03;9.59;47.33
71436;SHT31;59251;51.326;12.370;2023-02-28T13:11:41;9.93;46.00
71436;SHT31;59251;51.326;12.370;2023-02-28T13:16:54;7.52;50.27
71436;SHT31;59251;51.326;12.370;2023-02-28T13:19:22;7.32;50.09
71436;SHT31;59251;51.326;12.370;2023-02-28T13:21:50;7.26;51.34
71436;SHT31;59251;51.326;12.370;2023-02-28T13:29:44;6.18;53.22
71436;SHT31;59251;51.326;12.370;2023-02-28T13:34:41;9.53;47.63
71436;SHT31;59251;51.326;12.370;2023-02-28T13:47:41;8.49;48.19
71436;SHT31;59251;51.326;12.370;2023-02-28T13:50:36;8.12;47.81
71436;SHT31;59251;51.326;12.370;2023-02-28T14:11:43;7.98;49.04
71436;SHT31;59251;51.326;12.370;2023-02-28T14:17:02;8.71;48.81
71436;SHT31;59251;51.326;12.370;2023-02-28T14:19:32;7.47;51.02
71436;SHT31;59251;51.326;12.370;2023-02-28T14:38:27;7.02;50.94
71436;SHT31;59251;51.326;12.370;2023-02-28T14:40:57;8.24;50.04
71436;SHT31;59251;51.326;12.370;2023-02-28T14:43:26;7.64;49.49
71436;SHT31;59251;51.326;12.370;2023-02-28T14:45:55;7.33;49.71
71436;SHT31;59251;51.326;12.370;2023-02-28T14:48:21;6.38;52.72
71436;SHT31;59251;51.326;12.370;2023-02-28T14:50:56;7.02;52.02
71436;SHT31;59251;51.326;12.370;2023-02-28T14:53:26;8.56;49.87
71436;SHT31;59251;51.326;12.370;2023-02-28T14:55:52;7.46;50.47
71436;SHT31;59251;51.326;12.370;2023-02-28T14:58:32;7.47;52.00
71436;SHT31;59251;51.326;12.370;2023-02-28T15:01:00;7.49;51.74
71436;SHT31;59251;51.326;12.370;2023-02-28T15:03:38;7.69;50.92
71436;SHT31;59251;51.326;12.370;2023-02-28T15:06:06;7.90;50.60
71436;SHT31;59251;51.326;12.370;2023-02-28T15:08:37;8.57;47.72
71436;SHT31;59251;51.326;12.370;2023-02-28T15:11:05;7.82;50.71
71436;SHT31;59251;51.326;12.370;2023-02-28T15:13:44;8.71;49.51
71436;SHT31;59251;51.326;12.370;2023-02-28T15:16:13;8.85;47.33
71436;SHT31;59251;51.326;12.370;2023-02-28T15:18:49;6.78;52.03
71436;SHT31;59251;51.326;12.370;2023-02-28T15:21:25;6.64;52.16
71436;SHT31;59251;51.326;12.370;2023-02-28T15:26:28;6.81;53.53
71436;SHT31;59251;51.326;12.370;2023-02-28T15:29:22;8.45;50.71
71436;SHT31;59251;51.326;12.370;2023-02-28T15:31:56;8.67;50.33
71436;SHT31;59251;51.326;12.370;2023-02-28T15:34:43;8.09;49.05
71436;SHT31;59251;51.326;12.370;2023-02-28T15:42:38;8.15;49.66
71436;SHT31;59251;51.326;12.370;2023-02-28T15:45:04;7.23;52.14
71436;SHT31;59251;51.326;12.370;2023-02-28T15:47:30;6.36;52.92
71436;SHT31;59251;51.326;12.370;2023-02-28T15:50:01;5.84;54.21
71436;SHT31;59251;51.326;12.370;2023-02-28T15:52:44;5.20;57.45
71436;SHT31;59251;51.326;12.370;2023-02-28T15:55:19;4.83;57.74
71436;SHT31;59251;51.326;12.370;2023-02-28T15:57:46;4.47;58.99
71436;SHT31;59251;51.326;12.370;2023-02-28T16:00:16;4.27;59.88
71436;SHT31;59251;51.326;12.370;2023-02-28T16:02:43;4.30;60.20
71436;SHT31;59251;51.326;12.370;2023-02-28T16:07:36;4.45;60.39
71436;SHT31;59251;51.326;12.370;2023-02-28T16:10:02;4.20;60.49
71436;SHT31;59251;51.326;12.370;2023-02-28T16:12:33;4.07;61.22
71436;SHT31;59251;51.326;12.370;2023-02-28T16:15:01;4.07;61.50
71436;SHT31;59251;51.326;12.370;2023-02-28T16:17:31;3.90;61.78
71436;SHT31;59251;51.326;12.370;2023-02-28T16:19:57;3.85;61.99
71436;SHT31;59251;51.326;12.370;2023-02-28T16:22:23;3.83;62.49
71436;SHT31;59251;51.326;12.370;2023-02-28T16:24:49;3.95;62.18
71436;SHT31;59251;51.326;12.370;2023-02-28T16:27:21;3.75;62.48
71436;SHT31;59251;51.326;12.370;2023-02-28T16:29:50;3.79;62.93
71436;SHT31;59251;51.326;12.370;2023-02-28T16:32:16;3.65;63.25
71436;SHT31;59251;51.326;12.370;2023-02-28T16:34:44;3.57;63.26
71436;SHT31;59251;51.326;12.370;2023-02-28T16:37:15;3.51;63.60
71436;SHT31;59251;51.326;12.370;2023-02-28T16:39:42;3.61;63.66
71436;SHT31;59251;51.326;12.370;2023-02-28T16:42:28;3.57;63.69
71436;SHT31;59251;51.326;12.370;2023-02-28T16:44:56;3.48;63.85
71436;SHT31;59251;51.326;12.370;2023-02-28T16:47:23;3.32;64.12
71436;SHT31;59251;51.326;12.370;2023-02-28T16:49:48;3.28;64.82
71436;SHT31;59251;51.326;12.370;2023-02-28T16:52:14;3.18;64.82
71436;SHT31;59251;51.326;12.370;2023-02-28T16:54:41;3.13;65.13
71436;SHT31;59251;51.326;12.370;2023-02-28T16:57:17;3.04;65.55
71436;SHT31;59251;51.326;12.370;2023-02-28T16:59:44;3.03;65.69
71436;SHT31;59251;51.326;12.370;2023-02-28T17:02:14;2.96;66.01
71436;SHT31;59251;51.326;12.370;2023-02-28T17:04:41;2.95;66.19
71436;SHT31;59251;51.326;12.370;2023-02-28T17:07:16;2.88;66.42
71436;SHT31;59251;51.326;12.370;2023-02-28T17:09:43;2.85;66.38
71436;SHT31;59251;51.326;12.370;2023-02-28T17:12:09;2.82;66.54
71436;SHT31;59251;51.326;12.370;2023-02-28T17:14:34;2.79;67.05
71436;SHT31;59251;51.326;12.370;2023-02-28T17:17:00;2.72;67.28
71436;SHT31;59251;51.326;12.370;2023-02-28T17:19:25;2.71;67.24
71436;SHT31;59251;51.326;12.370;2023-02-28T17:21:51;2.71;67.40
71436;SHT31;59251;51.326;12.370;2023-02-28T17:24:16;2.52;68.11
71436;SHT31;59251;51.326;12.370;2023-02-28T17:26:42;2.37;68.33
71436;SHT31;59251;51.326;12.370;2023-02-28T17:29:19;2.41;68.64
71436;SHT31;59251;51.326;12.370;2023-02-28T17:31:44;2.35;68.53
71436;SHT31;59251;51.326;12.370;2023-02-28T17:34:10;2.37;68.98
71436;SHT31;59251;51.326;12.370;2023-02-28T17:36:36;2.30;69.03
71436;SHT31;59251;51.326;12.370;2023-02-28T17:39:04;2.30;68.89
71436;SHT31;59251;51.326;12.370;2023-02-28T17:41:32;2.28;68.88
71436;SHT31;59251;51.326;12.370;2023-02-28T17:43:57;2.32;68.96
71436;SHT31;59251;51.326;12.370;2023-02-28T17:46:23;2.30;68.88
71436;SHT31;59251;51.326;12.370;2023-02-28T17:48:51;2.35;68.95
71436;SHT31;59251;51.326;12.370;2023-02-28T17:51:18;2.28;69.24
71436;SHT31;59251;51.326;12.370;2023-02-28T17:53:44;2.25;69.27
71436;SHT31;59251;51.326;12.370;2023-02-28T17:56:18;2.00;69.94
71436;SHT31;59251;51.326;12.370;2023-02-28T17:58:44;1.94;70.12
71436;SHT31;59251;51.326;12.370;2023-02-28T18:01:09;1.86;71.14
71436;SHT31;59251;51.326;12.370;2023-02-28T18:03:36;2.11;70.68
71436;SHT31;59251;51.326;12.370;2023-02-28T18:06:01;2.24;70.15
71436;SHT31;59251;51.326;12.370;2023-02-28T18:08:27;1.99;70.66